Sant Just Desvern, Spain
Current Conditions -  °F | °C
As of 8:00 PM on Friday 21 Nov 2014 (Local Time) from LEBL Reporting Station
Scattered Clouds Scattered Clouds  
Wind Chill: 64°   Ceiling: Unl
Heat Index: 64°   Visibility: 6mi
Dew Point: 61°   Wind: 2mph
Humidity: 88%   Direction: NA
Pressure: 30.09"   Gusts: NA
Location:  41.39°N, 2.08°E
Report Text: LEBL 211900Z VRB02KT 9999 SCT020 18/16 Q1019 NOSIG
Loading
Personal Weather Stations






























Interactive Weather Map New forecast layout! Learn more

10-Day Weather Forecast

Advertisements
Track Severe Weather on mobile